sensor_id;sensor_type;location;lat;lon;timestamp;P1;durP1;ratioP1;P2;durP2;ratioP2
50483;SDS011;36409;52.168;20.878;2023-02-15T00:00:35;69.07;;;41.17;;
50483;SDS011;36409;52.168;20.878;2023-02-15T00:03:26;66.80;;;41.10;;
50483;SDS011;36409;52.168;20.878;2023-02-15T00:05:57;59.30;;;38.83;;
50483;SDS011;36409;52.168;20.878;2023-02-15T00:08:26;57.30;;;38.57;;
50483;SDS011;36409;52.168;20.878;2023-02-15T00:11:05;62.77;;;36.23;;
50483;SDS011;36409;52.168;20.878;2023-02-15T00:13:36;54.97;;;36.60;;
50483;SDS011;36409;52.168;20.878;2023-02-15T00:16:09;58.23;;;36.13;;
50483;SDS011;36409;52.168;20.878;2023-02-15T00:18:42;58.87;;;36.00;;
50483;SDS011;36409;52.168;20.878;2023-02-15T00:21:15;54.37;;;35.20;;
50483;SDS011;36409;52.168;20.878;2023-02-15T00:26:15;59.67;;;33.43;;
50483;SDS011;36409;52.168;20.878;2023-02-15T00:28:46;64.43;;;38.57;;
50483;SDS011;36409;52.168;20.878;2023-02-15T00:31:17;64.50;;;37.07;;
50483;SDS011;36409;52.168;20.878;2023-02-15T00:33:50;64.53;;;37.17;;
50483;SDS011;36409;52.168;20.878;2023-02-15T00:36:20;66.43;;;39.07;;
50483;SDS011;36409;52.168;20.878;2023-02-15T00:38:50;61.43;;;38.30;;
50483;SDS011;36409;52.168;20.878;2023-02-15T00:41:19;62.97;;;37.30;;
50483;SDS011;36409;52.168;20.878;2023-02-15T00:43:48;67.80;;;37.33;;
50483;SDS011;36409;52.168;20.878;2023-02-15T00:46:16;62.80;;;37.40;;
50483;SDS011;36409;52.168;20.878;2023-02-15T00:48:47;60.03;;;35.93;;
50483;SDS011;36409;52.168;20.878;2023-02-15T00:51:17;61.57;;;37.67;;
50483;SDS011;36409;52.168;20.878;2023-02-15T00:53:48;60.73;;;38.13;;
50483;SDS011;36409;52.168;20.878;2023-02-15T00:56:17;60.53;;;37.53;;
50483;SDS011;36409;52.168;20.878;2023-02-15T00:58:46;63.57;;;39.40;;
50483;SDS011;36409;52.168;20.878;2023-02-15T01:01:16;59.67;;;38.10;;
50483;SDS011;36409;52.168;20.878;2023-02-15T01:03:48;63.40;;;37.15;;
50483;SDS011;36409;52.168;20.878;2023-02-15T01:06:18;61.23;;;34.77;;
50483;SDS011;36409;52.168;20.878;2023-02-15T01:08:47;62.70;;;37.73;;
50483;SDS011;36409;52.168;20.878;2023-02-15T01:11:18;58.13;;;35.83;;
50483;SDS011;36409;52.168;20.878;2023-02-15T01:13:51;55.12;;;34.53;;
50483;SDS011;36409;52.168;20.878;2023-02-15T01:16:25;56.50;;;35.43;;
50483;SDS011;36409;52.168;20.878;2023-02-15T01:18:59;58.83;;;35.23;;
50483;SDS011;36409;52.168;20.878;2023-02-15T01:21:30;60.07;;;36.83;;
50483;SDS011;36409;52.168;20.878;2023-02-15T01:24:03;56.73;;;35.80;;
50483;SDS011;36409;52.168;20.878;2023-02-15T01:26:33;58.90;;;36.20;;
50483;SDS011;36409;52.168;20.878;2023-02-15T01:29:02;57.63;;;35.47;;
50483;SDS011;36409;52.168;20.878;2023-02-15T01:31:31;61.40;;;35.80;;
50483;SDS011;36409;52.168;20.878;2023-02-15T01:34:01;52.33;;;34.10;;
50483;SDS011;36409;52.168;20.878;2023-02-15T01:36:30;57.70;;;35.30;;
50483;SDS011;36409;52.168;20.878;2023-02-15T01:39:02;62.43;;;35.90;;
50483;SDS011;36409;52.168;20.878;2023-02-15T01:41:32;54.27;;;34.47;;
50483;SDS011;36409;52.168;20.878;2023-02-15T01:44:02;58.23;;;36.23;;
50483;SDS011;36409;52.168;20.878;2023-02-15T01:46:49;61.03;;;34.97;;
50483;SDS011;36409;52.168;20.878;2023-02-15T01:49:22;54.37;;;33.97;;
50483;SDS011;36409;52.168;20.878;2023-02-15T01:51:53;57.03;;;35.30;;
50483;SDS011;36409;52.168;20.878;2023-02-15T01:54:27;55.90;;;35.27;;
50483;SDS011;36409;52.168;20.878;2023-02-15T01:57:00;58.90;;;34.00;;
50483;SDS011;36409;52.168;20.878;2023-02-15T01:59:36;55.57;;;33.60;;
50483;SDS011;36409;52.168;20.878;2023-02-15T02:02:07;57.27;;;32.50;;
50483;SDS011;36409;52.168;20.878;2023-02-15T02:04:41;53.42;;;32.38;;
50483;SDS011;36409;52.168;20.878;2023-02-15T02:07:19;49.40;;;32.20;;
50483;SDS011;36409;52.168;20.878;2023-02-15T02:09:50;51.93;;;31.77;;
50483;SDS011;36409;52.168;20.878;2023-02-15T02:12:24;53.87;;;32.07;;
50483;SDS011;36409;52.168;20.878;2023-02-15T02:15:00;52.67;;;32.90;;
50483;SDS011;36409;52.168;20.878;2023-02-15T02:17:32;53.13;;;31.80;;
50483;SDS011;36409;52.168;20.878;2023-02-15T02:20:21;55.63;;;32.43;;
50483;SDS011;36409;52.168;20.878;2023-02-15T02:23:07;55.40;;;32.47;;
50483;SDS011;36409;52.168;20.878;2023-02-15T02:26:10;57.20;;;34.33;;
50483;SDS011;36409;52.168;20.878;2023-02-15T02:29:10;53.67;;;32.30;;
50483;SDS011;36409;52.168;20.878;2023-02-15T02:32:19;62.27;;;34.07;;
50483;SDS011;36409;52.168;20.878;2023-02-15T02:35:04;59.60;;;34.10;;
50483;SDS011;36409;52.168;20.878;2023-02-15T02:37:43;54.17;;;32.30;;
50483;SDS011;36409;52.168;20.878;2023-02-15T02:40:20;53.17;;;33.13;;
50483;SDS011;36409;52.168;20.878;2023-02-15T02:42:59;59.57;;;32.87;;
50483;SDS011;36409;52.168;20.878;2023-02-15T02:45:39;55.57;;;33.23;;
50483;SDS011;36409;52.168;20.878;2023-02-15T02:48:18;58.07;;;32.73;;
50483;SDS011;36409;52.168;20.878;2023-02-15T02:50:51;54.77;;;32.47;;
50483;SDS011;36409;52.168;20.878;2023-02-15T02:53:20;56.20;;;32.77;;
50483;SDS011;36409;52.168;20.878;2023-02-15T02:55:50;49.30;;;31.33;;
50483;SDS011;36409;52.168;20.878;2023-02-15T02:58:26;58.30;;;32.23;;
50483;SDS011;36409;52.168;20.878;2023-02-15T03:01:05;50.70;;;31.30;;
50483;SDS011;36409;52.168;20.878;2023-02-15T03:03:41;52.80;;;30.57;;
50483;SDS011;36409;52.168;20.878;2023-02-15T03:06:15;56.13;;;32.17;;
50483;SDS011;36409;52.168;20.878;2023-02-15T03:08:54;48.53;;;29.00;;
50483;SDS011;36409;52.168;20.878;2023-02-15T03:11:29;56.63;;;31.50;;
50483;SDS011;36409;52.168;20.878;2023-02-15T03:14:01;57.23;;;30.07;;
50483;SDS011;36409;52.168;20.878;2023-02-15T03:16:32;54.40;;;30.60;;
50483;SDS011;36409;52.168;20.878;2023-02-15T03:19:09;48.83;;;28.93;;
50483;SDS011;36409;52.168;20.878;2023-02-15T03:21:44;48.80;;;28.87;;
50483;SDS011;36409;52.168;20.878;2023-02-15T03:24:19;48.07;;;29.33;;
50483;SDS011;36409;52.168;20.878;2023-02-15T03:26:54;52.67;;;29.73;;
50483;SDS011;36409;52.168;20.878;2023-02-15T03:29:27;52.67;;;28.73;;
50483;SDS011;36409;52.168;20.878;2023-02-15T03:32:00;47.43;;;27.77;;
50483;SDS011;36409;52.168;20.878;2023-02-15T03:34:34;51.60;;;28.10;;
50483;SDS011;36409;52.168;20.878;2023-02-15T03:37:05;47.97;;;28.37;;
50483;SDS011;36409;52.168;20.878;2023-02-15T03:39:46;51.63;;;29.10;;
50483;SDS011;36409;52.168;20.878;2023-02-15T03:42:24;50.27;;;28.20;;
50483;SDS011;36409;52.168;20.878;2023-02-15T03:45:05;48.70;;;29.17;;
50483;SDS011;36409;52.168;20.878;2023-02-15T03:47:38;48.78;;;29.48;;
50483;SDS011;36409;52.168;20.878;2023-02-15T03:50:13;42.50;;;25.40;;
50483;SDS011;36409;52.168;20.878;2023-02-15T03:53:02;45.03;;;26.60;;
50483;SDS011;36409;52.168;20.878;2023-02-15T03:55:35;42.37;;;28.27;;
50483;SDS011;36409;52.168;20.878;2023-02-15T03:58:04;47.83;;;26.97;;
50483;SDS011;36409;52.168;20.878;2023-02-15T04:00:54;45.90;;;27.77;;
50483;SDS011;36409;52.168;20.878;2023-02-15T04:03:48;43.37;;;28.37;;
50483;SDS011;36409;52.168;20.878;2023-02-15T04:06:24;45.83;;;27.27;;
50483;SDS011;36409;52.168;20.878;2023-02-15T04:08:56;51.53;;;28.80;;
50483;SDS011;36409;52.168;20.878;2023-02-15T04:11:43;50.13;;;28.97;;
50483;SDS011;36409;52.168;20.878;2023-02-15T04:14:14;43.23;;;27.37;;
50483;SDS011;36409;52.168;20.878;2023-02-15T04:17:00;41.23;;;24.93;;
50483;SDS011;36409;52.168;20.878;2023-02-15T04:19:32;31.97;;;20.77;;
50483;SDS011;36409;52.168;20.878;2023-02-15T04:22:20;35.70;;;21.13;;
50483;SDS011;36409;52.168;20.878;2023-02-15T04:25:07;38.33;;;21.97;;
50483;SDS011;36409;52.168;20.878;2023-02-15T04:27:39;35.03;;;22.60;;
50483;SDS011;36409;52.168;20.878;2023-02-15T04:30:15;35.80;;;22.67;;
50483;SDS011;36409;52.168;20.878;2023-02-15T04:32:48;31.90;;;19.97;;
50483;SDS011;36409;52.168;20.878;2023-02-15T04:35:17;31.83;;;19.97;;
50483;SDS011;36409;52.168;20.878;2023-02-15T04:37:52;33.17;;;20.43;;
50483;SDS011;36409;52.168;20.878;2023-02-15T04:40:23;35.13;;;21.13;;
50483;SDS011;36409;52.168;20.878;2023-02-15T04:42:52;39.07;;;21.27;;
50483;SDS011;36409;52.168;20.878;2023-02-15T04:45:32;36.60;;;23.17;;
50483;SDS011;36409;52.168;20.878;2023-02-15T04:48:04;35.10;;;21.73;;
50483;SDS011;36409;52.168;20.878;2023-02-15T04:50:36;38.27;;;23.57;;
50483;SDS011;36409;52.168;20.878;2023-02-15T04:53:05;42.57;;;27.07;;
50483;SDS011;36409;52.168;20.878;2023-02-15T04:55:34;42.97;;;26.50;;
50483;SDS011;36409;52.168;20.878;2023-02-15T04:58:03;38.63;;;25.20;;
50483;SDS011;36409;52.168;20.878;2023-02-15T05:00:34;36.05;;;22.40;;
50483;SDS011;36409;52.168;20.878;2023-02-15T05:03:06;36.65;;;22.00;;
50483;SDS011;36409;52.168;20.878;2023-02-15T05:05:39;36.73;;;21.40;;
50483;SDS011;36409;52.168;20.878;2023-02-15T05:08:09;33.13;;;21.10;;
50483;SDS011;36409;52.168;20.878;2023-02-15T05:10:38;37.97;;;23.00;;
50483;SDS011;36409;52.168;20.878;2023-02-15T05:13:07;37.65;;;23.85;;
50483;SDS011;36409;52.168;20.878;2023-02-15T05:15:37;47.93;;;25.83;;
50483;SDS011;36409;52.168;20.878;2023-02-15T05:18:08;42.25;;;24.65;;
50483;SDS011;36409;52.168;20.878;2023-02-15T05:20:37;45.47;;;25.40;;
50483;SDS011;36409;52.168;20.878;2023-02-15T05:23:06;43.97;;;25.00;;
50483;SDS011;36409;52.168;20.878;2023-02-15T05:25:35;37.97;;;23.37;;
50483;SDS011;36409;52.168;20.878;2023-02-15T05:28:24;39.07;;;22.67;;
50483;SDS011;36409;52.168;20.878;2023-02-15T05:30:59;43.03;;;24.97;;
50483;SDS011;36409;52.168;20.878;2023-02-15T05:33:32;39.10;;;25.10;;
50483;SDS011;36409;52.168;20.878;2023-02-15T05:36:03;40.30;;;24.07;;
50483;SDS011;36409;52.168;20.878;2023-02-15T05:38:33;36.27;;;22.70;;
50483;SDS011;36409;52.168;20.878;2023-02-15T05:41:05;35.90;;;23.20;;
50483;SDS011;36409;52.168;20.878;2023-02-15T05:43:34;38.23;;;23.40;;
50483;SDS011;36409;52.168;20.878;2023-02-15T05:46:05;37.67;;;23.07;;
50483;SDS011;36409;52.168;20.878;2023-02-15T05:48:36;40.70;;;24.17;;
50483;SDS011;36409;52.168;20.878;2023-02-15T05:51:06;38.53;;;23.17;;
50483;SDS011;36409;52.168;20.878;2023-02-15T05:53:37;38.37;;;22.50;;
50483;SDS011;36409;52.168;20.878;2023-02-15T05:56:08;36.37;;;22.30;;
50483;SDS011;36409;52.168;20.878;2023-02-15T05:58:39;39.60;;;22.30;;
50483;SDS011;36409;52.168;20.878;2023-02-15T06:01:09;36.40;;;21.20;;
50483;SDS011;36409;52.168;20.878;2023-02-15T06:03:39;40.73;;;21.90;;
50483;SDS011;36409;52.168;20.878;2023-02-15T06:06:10;37.97;;;21.63;;
50483;SDS011;36409;52.168;20.878;2023-02-15T06:08:42;43.73;;;22.13;;
50483;SDS011;36409;52.168;20.878;2023-02-15T06:11:16;39.90;;;22.97;;
50483;SDS011;36409;52.168;20.878;2023-02-15T06:13:49;35.37;;;21.73;;
50483;SDS011;36409;52.168;20.878;2023-02-15T06:16:21;39.15;;;21.77;;
50483;SDS011;36409;52.168;20.878;2023-02-15T06:18:52;37.33;;;22.37;;
50483;SDS011;36409;52.168;20.878;2023-02-15T06:21:21;35.03;;;21.97;;
50483;SDS011;36409;52.168;20.878;2023-02-15T06:23:50;38.23;;;23.90;;
50483;SDS011;36409;52.168;20.878;2023-02-15T06:26:19;37.10;;;21.37;;
50483;SDS011;36409;52.168;20.878;2023-02-15T06:28:49;39.35;;;21.70;;
50483;SDS011;36409;52.168;20.878;2023-02-15T06:31:18;37.73;;;20.10;;
50483;SDS011;36409;52.168;20.878;2023-02-15T06:33:49;34.30;;;19.33;;
50483;SDS011;36409;52.168;20.878;2023-02-15T06:36:18;34.80;;;20.70;;
50483;SDS011;36409;52.168;20.878;2023-02-15T06:38:47;34.23;;;21.90;;
50483;SDS011;36409;52.168;20.878;2023-02-15T06:41:17;44.43;;;24.57;;
50483;SDS011;36409;52.168;20.878;2023-02-15T06:43:47;41.63;;;23.20;;
50483;SDS011;36409;52.168;20.878;2023-02-15T06:46:16;40.33;;;23.57;;
50483;SDS011;36409;52.168;20.878;2023-02-15T06:48:47;41.37;;;22.70;;
50483;SDS011;36409;52.168;20.878;2023-02-15T06:51:19;44.47;;;25.20;;
50483;SDS011;36409;52.168;20.878;2023-02-15T06:53:49;41.77;;;22.87;;
50483;SDS011;36409;52.168;20.878;2023-02-15T06:56:21;41.77;;;22.77;;
50483;SDS011;36409;52.168;20.878;2023-02-15T06:58:51;43.13;;;22.60;;
50483;SDS011;36409;52.168;20.878;2023-02-15T07:01:20;38.30;;;21.23;;
50483;SDS011;36409;52.168;20.878;2023-02-15T07:03:50;34.53;;;19.77;;
50483;SDS011;36409;52.168;20.878;2023-02-15T07:06:20;33.53;;;20.03;;
50483;SDS011;36409;52.168;20.878;2023-02-15T07:08:50;38.40;;;18.73;;
50483;SDS011;36409;52.168;20.878;2023-02-15T07:11:20;34.97;;;20.60;;
50483;SDS011;36409;52.168;20.878;2023-02-15T07:14:07;39.50;;;20.83;;
50483;SDS011;36409;52.168;20.878;2023-02-15T07:16:37;41.17;;;19.73;;
50483;SDS011;36409;52.168;20.878;2023-02-15T07:19:07;31.07;;;18.43;;
50483;SDS011;36409;52.168;20.878;2023-02-15T07:21:38;40.10;;;21.13;;
50483;SDS011;36409;52.168;20.878;2023-02-15T07:24:07;33.40;;;18.87;;
50483;SDS011;36409;52.168;20.878;2023-02-15T07:26:39;38.00;;;20.87;;
50483;SDS011;36409;52.168;20.878;2023-02-15T07:29:08;39.10;;;20.87;;
50483;SDS011;36409;52.168;20.878;2023-02-15T07:31:37;35.60;;;20.43;;
50483;SDS011;36409;52.168;20.878;2023-02-15T07:34:07;37.60;;;20.33;;
50483;SDS011;36409;52.168;20.878;2023-02-15T07:36:37;34.37;;;19.17;;
50483;SDS011;36409;52.168;20.878;2023-02-15T07:39:06;31.07;;;17.77;;
50483;SDS011;36409;52.168;20.878;2023-02-15T07:41:35;31.60;;;17.30;;
50483;SDS011;36409;52.168;20.878;2023-02-15T07:44:11;31.27;;;18.07;;
50483;SDS011;36409;52.168;20.878;2023-02-15T07:46:42;29.97;;;17.50;;
50483;SDS011;36409;52.168;20.878;2023-02-15T07:49:11;28.20;;;16.47;;
50483;SDS011;36409;52.168;20.878;2023-02-15T07:51:42;33.57;;;19.63;;
50483;SDS011;36409;52.168;20.878;2023-02-15T07:54:12;31.10;;;18.13;;
50483;SDS011;36409;52.168;20.878;2023-02-15T07:56:44;27.77;;;17.43;;
50483;SDS011;36409;52.168;20.878;2023-02-15T07:59:15;37.00;;;17.50;;
50483;SDS011;36409;52.168;20.878;2023-02-15T08:01:44;30.97;;;18.23;;
50483;SDS011;36409;52.168;20.878;2023-02-15T08:04:16;39.10;;;19.50;;
50483;SDS011;36409;52.168;20.878;2023-02-15T08:06:51;32.17;;;18.40;;
50483;SDS011;36409;52.168;20.878;2023-02-15T08:09:25;33.20;;;17.77;;
50483;SDS011;36409;52.168;20.878;2023-02-15T08:11:54;27.07;;;17.17;;
50483;SDS011;36409;52.168;20.878;2023-02-15T08:14:26;31.50;;;16.80;;
50483;SDS011;36409;52.168;20.878;2023-02-15T08:17:01;32.33;;;19.67;;
50483;SDS011;36409;52.168;20.878;2023-02-15T08:19:32;33.48;;;19.60;;
50483;SDS011;36409;52.168;20.878;2023-02-15T08:22:04;33.50;;;19.77;;
50483;SDS011;36409;52.168;20.878;2023-02-15T08:24:34;38.77;;;21.53;;
50483;SDS011;36409;52.168;20.878;2023-02-15T08:27:05;31.43;;;17.83;;
50483;SDS011;36409;52.168;20.878;2023-02-15T08:29:35;32.43;;;19.27;;
50483;SDS011;36409;52.168;20.878;2023-02-15T08:32:06;27.70;;;16.67;;
50483;SDS011;36409;52.168;20.878;2023-02-15T08:34:38;31.80;;;18.20;;
50483;SDS011;36409;52.168;20.878;2023-02-15T08:37:08;31.97;;;17.43;;
50483;SDS011;36409;52.168;20.878;2023-02-15T08:39:38;29.10;;;17.17;;
50483;SDS011;36409;52.168;20.878;2023-02-15T08:42:09;32.57;;;16.63;;
50483;SDS011;36409;52.168;20.878;2023-02-15T08:44:39;29.73;;;17.40;;
50483;SDS011;36409;52.168;20.878;2023-02-15T08:47:08;30.75;;;17.50;;
50483;SDS011;36409;52.168;20.878;2023-02-15T08:49:37;28.35;;;15.55;;
50483;SDS011;36409;52.168;20.878;2023-02-15T08:52:06;28.33;;;16.17;;
50483;SDS011;36409;52.168;20.878;2023-02-15T08:54:35;29.23;;;16.53;;
50483;SDS011;36409;52.168;20.878;2023-02-15T08:57:04;29.57;;;16.73;;
50483;SDS011;36409;52.168;20.878;2023-02-15T08:59:35;28.43;;;16.70;;
50483;SDS011;36409;52.168;20.878;2023-02-15T09:02:04;33.57;;;18.30;;
50483;SDS011;36409;52.168;20.878;2023-02-15T09:04:34;31.77;;;18.50;;
50483;SDS011;36409;52.168;20.878;2023-02-15T09:07:03;29.70;;;17.03;;
50483;SDS011;36409;52.168;20.878;2023-02-15T09:09:33;34.20;;;18.07;;
50483;SDS011;36409;52.168;20.878;2023-02-15T09:12:02;34.73;;;19.83;;
50483;SDS011;36409;52.168;20.878;2023-02-15T09:14:31;34.80;;;21.00;;
50483;SDS011;36409;52.168;20.878;2023-02-15T09:17:01;38.73;;;21.23;;
50483;SDS011;36409;52.168;20.878;2023-02-15T09:19:31;38.43;;;20.77;;
50483;SDS011;36409;52.168;20.878;2023-02-15T09:22:00;37.73;;;21.87;;
50483;SDS011;36409;52.168;20.878;2023-02-15T09:24:31;45.03;;;23.90;;
50483;SDS011;36409;52.168;20.878;2023-02-15T09:27:01;39.40;;;21.90;;
50483;SDS011;36409;52.168;20.878;2023-02-15T09:29:31;36.23;;;19.70;;
50483;SDS011;36409;52.168;20.878;2023-02-15T09:32:00;36.60;;;21.50;;
50483;SDS011;36409;52.168;20.878;2023-02-15T09:34:29;39.90;;;22.70;;
50483;SDS011;36409;52.168;20.878;2023-02-15T09:37:01;39.43;;;20.77;;
50483;SDS011;36409;52.168;20.878;2023-02-15T09:39:40;35.87;;;20.23;;
50483;SDS011;36409;52.168;20.878;2023-02-15T09:42:26;33.50;;;19.83;;
50483;SDS011;36409;52.168;20.878;2023-02-15T09:45:19;34.37;;;20.47;;
50483;SDS011;36409;52.168;20.878;2023-02-15T09:50:58;38.73;;;21.23;;
50483;SDS011;36409;52.168;20.878;2023-02-15T09:53:58;38.47;;;19.07;;
50483;SDS011;36409;52.168;20.878;2023-02-15T09:56:45;32.53;;;17.77;;
50483;SDS011;36409;52.168;20.878;2023-02-15T09:59:21;25.93;;;15.37;;
50483;SDS011;36409;52.168;20.878;2023-02-15T10:02:01;33.33;;;18.37;;
50483;SDS011;36409;52.168;20.878;2023-02-15T10:04:45;30.30;;;17.33;;
50483;SDS011;36409;52.168;20.878;2023-02-15T10:07:28;28.87;;;17.17;;
50483;SDS011;36409;52.168;20.878;2023-02-15T10:10:14;29.33;;;16.43;;
50483;SDS011;36409;52.168;20.878;2023-02-15T10:12:55;30.20;;;16.63;;
50483;SDS011;36409;52.168;20.878;2023-02-15T10:15:42;26.60;;;15.13;;
50483;SDS011;36409;52.168;20.878;2023-02-15T10:18:26;31.87;;;16.57;;
50483;SDS011;36409;52.168;20.878;2023-02-15T10:21:09;32.47;;;17.57;;
50483;SDS011;36409;52.168;20.878;2023-02-15T10:26:42;32.10;;;17.40;;
50483;SDS011;36409;52.168;20.878;2023-02-15T10:29:19;32.83;;;18.47;;
50483;SDS011;36409;52.168;20.878;2023-02-15T10:31:59;51.53;;;27.97;;
50483;SDS011;36409;52.168;20.878;2023-02-15T10:34:39;41.37;;;22.40;;
50483;SDS011;36409;52.168;20.878;2023-02-15T10:40:00;30.07;;;17.57;;
50483;SDS011;36409;52.168;20.878;2023-02-15T10:42:39;32.47;;;18.97;;
50483;SDS011;36409;52.168;20.878;2023-02-15T10:45:20;36.50;;;20.27;;
50483;SDS011;36409;52.168;20.878;2023-02-15T10:48:06;42.93;;;23.00;;
50483;SDS011;36409;52.168;20.878;2023-02-15T10:50:50;42.73;;;22.60;;
50483;SDS011;36409;52.168;20.878;2023-02-15T10:56:23;40.63;;;21.63;;
50483;SDS011;36409;52.168;20.878;2023-02-15T11:01:44;33.63;;;18.77;;
50483;SDS011;36409;52.168;20.878;2023-02-15T11:04:33;35.63;;;18.93;;
50483;SDS011;36409;52.168;20.878;2023-02-15T11:07:16;32.23;;;18.60;;
50483;SDS011;36409;52.168;20.878;2023-02-15T11:09:51;32.73;;;18.63;;
50483;SDS011;36409;52.168;20.878;2023-02-15T11:12:28;38.00;;;21.50;;
50483;SDS011;36409;52.168;20.878;2023-02-15T11:15:03;41.00;;;25.90;;
50483;SDS011;36409;52.168;20.878;2023-02-15T11:17:43;34.55;;;20.45;;
50483;SDS011;36409;52.168;20.878;2023-02-15T11:20:18;33.83;;;20.53;;
50483;SDS011;36409;52.168;20.878;2023-02-15T11:22:53;40.77;;;23.73;;
50483;SDS011;36409;52.168;20.878;2023-02-15T11:25:25;37.07;;;22.67;;
50483;SDS011;36409;52.168;20.878;2023-02-15T11:27:58;40.23;;;24.40;;
50483;SDS011;36409;52.168;20.878;2023-02-15T11:30:35;38.70;;;22.53;;
50483;SDS011;36409;52.168;20.878;2023-02-15T11:33:14;44.27;;;23.47;;
50483;SDS011;36409;52.168;20.878;2023-02-15T11:35:48;41.63;;;24.27;;
50483;SDS011;36409;52.168;20.878;2023-02-15T11:38:21;46.03;;;25.77;;
50483;SDS011;36409;52.168;20.878;2023-02-15T11:40:56;42.30;;;24.70;;
50483;SDS011;36409;52.168;20.878;2023-02-15T11:43:30;51.53;;;26.63;;
50483;SDS011;36409;52.168;20.878;2023-02-15T11:46:04;52.23;;;28.73;;
50483;SDS011;36409;52.168;20.878;2023-02-15T11:48:33;52.27;;;29.23;;
50483;SDS011;36409;52.168;20.878;2023-02-15T11:51:03;46.70;;;27.40;;
50483;SDS011;36409;52.168;20.878;2023-02-15T11:53:33;49.50;;;28.90;;
50483;SDS011;36409;52.168;20.878;2023-02-15T11:56:09;50.73;;;29.33;;
50483;SDS011;36409;52.168;20.878;2023-02-15T11:58:47;49.83;;;29.07;;
50483;SDS011;36409;52.168;20.878;2023-02-15T12:01:23;54.97;;;31.03;;
50483;SDS011;36409;52.168;20.878;2023-02-15T12:03:59;47.17;;;28.03;;
50483;SDS011;36409;52.168;20.878;2023-02-15T12:06:33;51.83;;;29.23;;
50483;SDS011;36409;52.168;20.878;2023-02-15T12:09:06;49.93;;;29.00;;
50483;SDS011;36409;52.168;20.878;2023-02-15T12:11:49;50.00;;;29.73;;
50483;SDS011;36409;52.168;20.878;2023-02-15T12:14:18;68.63;;;36.47;;
50483;SDS011;36409;52.168;20.878;2023-02-15T12:16:48;58.57;;;30.23;;
50483;SDS011;36409;52.168;20.878;2023-02-15T12:19:27;49.90;;;29.30;;
50483;SDS011;36409;52.168;20.878;2023-02-15T12:22:02;48.40;;;29.53;;
50483;SDS011;36409;52.168;20.878;2023-02-15T12:24:36;49.03;;;28.10;;
50483;SDS011;36409;52.168;20.878;2023-02-15T12:27:20;49.18;;;27.77;;
50483;SDS011;36409;52.168;20.878;2023-02-15T12:29:52;50.37;;;28.53;;
50483;SDS011;36409;52.168;20.878;2023-02-15T12:32:25;43.70;;;25.97;;
50483;SDS011;36409;52.168;20.878;2023-02-15T12:35:02;42.73;;;23.57;;
50483;SDS011;36409;52.168;20.878;2023-02-15T12:37:41;38.60;;;24.27;;
50483;SDS011;36409;52.168;20.878;2023-02-15T12:40:23;43.03;;;24.77;;
50483;SDS011;36409;52.168;20.878;2023-02-15T12:42:58;45.10;;;27.40;;
50483;SDS011;36409;52.168;20.878;2023-02-15T12:45:28;54.43;;;32.47;;
50483;SDS011;36409;52.168;20.878;2023-02-15T12:50:51;56.23;;;30.10;;
50483;SDS011;36409;52.168;20.878;2023-02-15T12:53:35;61.10;;;34.15;;
50483;SDS011;36409;52.168;20.878;2023-02-15T12:56:07;58.40;;;32.40;;
50483;SDS011;36409;52.168;20.878;2023-02-15T12:58:37;63.23;;;33.90;;
50483;SDS011;36409;52.168;20.878;2023-02-15T13:01:12;50.45;;;30.90;;
50483;SDS011;36409;52.168;20.878;2023-02-15T13:03:54;67.40;;;34.03;;
50483;SDS011;36409;52.168;20.878;2023-02-15T13:06:26;73.00;;;33.83;;
50483;SDS011;36409;52.168;20.878;2023-02-15T13:09:05;51.30;;;29.30;;
50483;SDS011;36409;52.168;20.878;2023-02-15T13:11:42;58.40;;;29.77;;
50483;SDS011;36409;52.168;20.878;2023-02-15T13:14:17;59.55;;;32.40;;
50483;SDS011;36409;52.168;20.878;2023-02-15T13:16:50;65.83;;;32.53;;
50483;SDS011;36409;52.168;20.878;2023-02-15T13:19:22;67.67;;;33.07;;
50483;SDS011;36409;52.168;20.878;2023-02-15T13:22:00;60.50;;;31.13;;
50483;SDS011;36409;52.168;20.878;2023-02-15T13:24:33;53.60;;;29.43;;
50483;SDS011;36409;52.168;20.878;2023-02-15T13:27:12;92.30;;;38.70;;
50483;SDS011;36409;52.168;20.878;2023-02-15T13:29:51;73.50;;;36.87;;
50483;SDS011;36409;52.168;20.878;2023-02-15T13:32:28;57.47;;;29.20;;
50483;SDS011;36409;52.168;20.878;2023-02-15T13:34:59;55.23;;;28.90;;
50483;SDS011;36409;52.168;20.878;2023-02-15T13:37:37;48.00;;;27.40;;
50483;SDS011;36409;52.168;20.878;2023-02-15T13:40:22;49.37;;;28.20;;
50483;SDS011;36409;52.168;20.878;2023-02-15T13:43:02;48.47;;;27.07;;
50483;SDS011;36409;52.168;20.878;2023-02-15T13:45:50;51.68;;;28.95;;
50483;SDS011;36409;52.168;20.878;2023-02-15T13:48:38;45.63;;;27.97;;
50483;SDS011;36409;52.168;20.878;2023-02-15T13:51:20;49.37;;;28.30;;
50483;SDS011;36409;52.168;20.878;2023-02-15T13:54:04;51.20;;;29.63;;
50483;SDS011;36409;52.168;20.878;2023-02-15T13:56:55;56.77;;;31.90;;
50483;SDS011;36409;52.168;20.878;2023-02-15T13:59:46;55.67;;;32.63;;
50483;SDS011;36409;52.168;20.878;2023-02-15T14:08:34;72.93;;;38.70;;
50483;SDS011;36409;52.168;20.878;2023-02-15T14:11:15;66.17;;;35.50;;
50483;SDS011;36409;52.168;20.878;2023-02-15T14:17:02;57.43;;;35.03;;
50483;SDS011;36409;52.168;20.878;2023-02-15T14:19:41;55.67;;;31.10;;
50483;SDS011;36409;52.168;20.878;2023-02-15T14:22:20;54.30;;;31.93;;
50483;SDS011;36409;52.168;20.878;2023-02-15T14:24:59;57.77;;;32.53;;
50483;SDS011;36409;52.168;20.878;2023-02-15T14:27:49;57.60;;;28.90;;
50483;SDS011;36409;52.168;20.878;2023-02-15T14:30:33;57.20;;;32.10;;
50483;SDS011;36409;52.168;20.878;2023-02-15T14:33:07;56.23;;;32.23;;
50483;SDS011;36409;52.168;20.878;2023-02-15T14:35:44;63.03;;;33.70;;
50483;SDS011;36409;52.168;20.878;2023-02-15T14:38:19;66.20;;;35.60;;
50483;SDS011;36409;52.168;20.878;2023-02-15T14:40:54;64.43;;;35.47;;
50483;SDS011;36409;52.168;20.878;2023-02-15T14:43:34;67.20;;;35.40;;
50483;SDS011;36409;52.168;20.878;2023-02-15T14:46:18;67.60;;;36.13;;
50483;SDS011;36409;52.168;20.878;2023-02-15T14:48:54;58.20;;;32.23;;
50483;SDS011;36409;52.168;20.878;2023-02-15T14:57:23;65.83;;;35.57;;
50483;SDS011;36409;52.168;20.878;2023-02-15T15:03:10;55.20;;;30.70;;
50483;SDS011;36409;52.168;20.878;2023-02-15T15:05:48;48.60;;;26.97;;
50483;SDS011;36409;52.168;20.878;2023-02-15T15:08:25;52.70;;;28.13;;
50483;SDS011;36409;52.168;20.878;2023-02-15T15:20:43;50.67;;;27.43;;
50483;SDS011;36409;52.168;20.878;2023-02-15T15:26:30;42.10;;;23.10;;
50483;SDS011;36409;52.168;20.878;2023-02-15T15:29:06;48.10;;;25.27;;
50483;SDS011;36409;52.168;20.878;2023-02-15T15:31:47;45.23;;;24.43;;
50483;SDS011;36409;52.168;20.878;2023-02-15T15:40:45;45.13;;;24.80;;
50483;SDS011;36409;52.168;20.878;2023-02-15T15:43:39;48.77;;;26.40;;
50483;SDS011;36409;52.168;20.878;2023-02-15T15:46:51;49.80;;;26.70;;
50483;SDS011;36409;52.168;20.878;2023-02-15T15:49:30;50.67;;;26.97;;